sensor_id;sensor_type;location;lat;lon;timestamp;pressure;altitude;pressure_sealevel;temperature;humidity
37132;BME280;23035;50.032;21.978;2023-02-03T00:01:31;65267.06;;;0.91;100.00
37132;BME280;23035;50.032;21.978;2023-02-03T00:06:36;65262.81;;;0.86;100.00
37132;BME280;23035;50.032;21.978;2023-02-03T00:11:42;65255.38;;;0.79;100.00
37132;BME280;23035;50.032;21.978;2023-02-03T00:16:49;65232.81;;;0.53;100.00
37132;BME280;23035;50.032;21.978;2023-02-03T00:21:54;65224.09;;;0.52;100.00
37132;BME280;23035;50.032;21.978;2023-02-03T00:27:00;65248.66;;;0.78;100.00
37132;BME280;23035;50.032;21.978;2023-02-03T00:32:04;65247.91;;;0.72;100.00
37132;BME280;23035;50.032;21.978;2023-02-03T00:37:11;65238.34;;;0.63;100.00
37132;BME280;23035;50.032;21.978;2023-02-03T00:42:17;65270.25;;;0.94;100.00
37132;BME280;23035;50.032;21.978;2023-02-03T00:47:21;65236.94;;;0.67;100.00
37132;BME280;23035;50.032;21.978;2023-02-03T00:52:26;65248.34;;;0.70;100.00
37132;BME280;23035;50.032;21.978;2023-02-03T00:57:32;65186.22;;;0.13;100.00
37132;BME280;23035;50.032;21.978;2023-02-03T01:02:36;65147.94;;;-0.23;100.00
37132;BME280;23035;50.032;21.978;2023-02-03T01:07:41;65123.72;;;-0.42;100.00
37132;BME280;23035;50.032;21.978;2023-02-03T01:12:47;65147.94;;;-0.23;100.00
37132;BME280;23035;50.032;21.978;2023-02-03T01:17:52;65125.19;;;-0.43;100.00
37132;BME280;23035;50.032;21.978;2023-02-03T01:22:56;65118.94;;;-0.46;100.00
37132;BME280;23035;50.032;21.978;2023-02-03T01:28:05;65138.81;;;-0.35;100.00
37132;BME280;23035;50.032;21.978;2023-02-03T01:33:09;65131.16;;;-0.35;100.00
37132;BME280;23035;50.032;21.978;2023-02-03T01:38:14;65121.91;;;-0.48;100.00
37132;BME280;23035;50.032;21.978;2023-02-03T01:43:30;65127.75;;;-0.43;100.00
37132;BME280;23035;50.032;21.978;2023-02-03T01:48:35;65204.41;;;0.33;100.00
37132;BME280;23035;50.032;21.978;2023-02-03T01:53:41;65168.03;;;-0.07;100.00
37132;BME280;23035;50.032;21.978;2023-02-03T01:58:48;65222.38;;;0.48;100.00
37132;BME280;23035;50.032;21.978;2023-02-03T02:03:56;65230.88;;;0.56;100.00
37132;BME280;23035;50.032;21.978;2023-02-03T02:09:03;65233.22;;;0.63;100.00
37132;BME280;23035;50.032;21.978;2023-02-03T02:14:09;65310.25;;;1.34;100.00
37132;BME280;23035;50.032;21.978;2023-02-03T02:19:50;65281.53;;;1.07;100.00
37132;BME280;23035;50.032;21.978;2023-02-03T02:25:20;65311.31;;;1.35;100.00
37132;BME280;23035;50.032;21.978;2023-02-03T02:30:42;65224.50;;;0.50;100.00
37132;BME280;23035;50.032;21.978;2023-02-03T02:35:58;65275.16;;;1.01;100.00
37132;BME280;23035;50.032;21.978;2023-02-03T02:41:09;65105.97;;;-0.64;100.00
37132;BME280;23035;50.032;21.978;2023-02-03T02:46:18;65146.25;;;-0.27;100.00
37132;BME280;23035;50.032;21.978;2023-02-03T02:51:28;65087.38;;;-0.81;100.00
37132;BME280;23035;50.032;21.978;2023-02-03T02:56:38;65137.41;;;-0.31;100.00
37132;BME280;23035;50.032;21.978;2023-02-03T03:01:44;65106.59;;;-0.61;100.00
37132;BME280;23035;50.032;21.978;2023-02-03T03:06:55;65124.25;;;-0.41;100.00
37132;BME280;23035;50.032;21.978;2023-02-03T03:12:07;65045.09;;;-1.17;100.00
37132;BME280;23035;50.032;21.978;2023-02-03T03:17:19;65093.31;;;-0.73;100.00
37132;BME280;23035;50.032;21.978;2023-02-03T03:22:30;65209.63;;;0.36;100.00
37132;BME280;23035;50.032;21.978;2023-02-03T03:27:39;65262.81;;;0.86;100.00
37132;BME280;23035;50.032;21.978;2023-02-03T03:32:45;65248.34;;;0.70;100.00
37132;BME280;23035;50.032;21.978;2023-02-03T03:37:55;65258.13;;;0.84;100.00
37132;BME280;23035;50.032;21.978;2023-02-03T03:43:05;65224.63;;;0.52;100.00
37132;BME280;23035;50.032;21.978;2023-02-03T03:48:14;65231.41;;;0.56;100.00
37132;BME280;23035;50.032;21.978;2023-02-03T03:53:22;65155.06;;;-0.12;100.00
37132;BME280;23035;50.032;21.978;2023-02-03T03:58:30;65219.41;;;0.50;100.00
37132;BME280;23035;50.032;21.978;2023-02-03T04:03:38;65183.66;;;0.13;100.00
37132;BME280;23035;50.032;21.978;2023-02-03T04:08:45;65168.91;;;0.02;100.00
37132;BME280;23035;50.032;21.978;2023-02-03T04:13:50;65119.38;;;-0.48;100.00
37132;BME280;23035;50.032;21.978;2023-02-03T04:18:54;65148.56;;;-0.20;100.00
37132;BME280;23035;50.032;21.978;2023-02-03T04:24:00;65154.88;;;-0.17;100.00
37132;BME280;23035;50.032;21.978;2023-02-03T04:29:05;65095.44;;;-0.71;100.00
37132;BME280;23035;50.032;21.978;2023-02-03T04:34:10;65165.69;;;-0.02;100.00
37132;BME280;23035;50.032;21.978;2023-02-03T04:39:19;65143.16;;;-0.28;100.00
37132;BME280;23035;50.032;21.978;2023-02-03T04:44:23;65122.53;;;-0.45;100.00
37132;BME280;23035;50.032;21.978;2023-02-03T04:49:28;65208.97;;;0.33;100.00
37132;BME280;23035;50.032;21.978;2023-02-03T04:54:34;65147.94;;;-0.23;100.00
37132;BME280;23035;50.032;21.978;2023-02-03T04:59:39;65146.78;;;-0.27;100.00
37132;BME280;23035;50.032;21.978;2023-02-03T05:04:43;65144.13;;;-0.30;100.00
37132;BME280;23035;50.032;21.978;2023-02-03T05:09:49;65162.31;;;-0.10;100.00
37132;BME280;23035;50.032;21.978;2023-02-03T05:14:54;65165.38;;;-0.09;100.00
37132;BME280;23035;50.032;21.978;2023-02-03T05:19:59;65130.41;;;-0.40;100.00
37132;BME280;23035;50.032;21.978;2023-02-03T05:25:06;65168.25;;;-0.02;100.00
37132;BME280;23035;50.032;21.978;2023-02-03T05:30:11;65085.69;;;-0.85;100.00
37132;BME280;23035;50.032;21.978;2023-02-03T05:35:16;65117.13;;;-0.53;100.00
37132;BME280;23035;50.032;21.978;2023-02-03T05:40:22;65099.19;;;-0.68;100.00
37132;BME280;23035;50.032;21.978;2023-02-03T05:45:44;65092.69;;;-0.76;100.00
37132;BME280;23035;50.032;21.978;2023-02-03T05:50:49;65160.28;;;-0.09;100.00
37132;BME280;23035;50.032;21.978;2023-02-03T05:55:55;65142.00;;;-0.32;100.00
37132;BME280;23035;50.032;21.978;2023-02-03T06:01:00;65101.81;;;-0.65;100.00
37132;BME280;23035;50.032;21.978;2023-02-03T06:06:04;65158.25;;;-0.09;100.00
37132;BME280;23035;50.032;21.978;2023-02-03T06:11:11;65080.56;;;-0.85;100.00
37132;BME280;23035;50.032;21.978;2023-02-03T06:16:15;65103.22;;;-0.69;100.00
37132;BME280;23035;50.032;21.978;2023-02-03T06:21:20;65104.81;;;-0.67;100.00
37132;BME280;23035;50.032;21.978;2023-02-03T06:26:30;65188.88;;;0.16;100.00
37132;BME280;23035;50.032;21.978;2023-02-03T06:31:34;65188.78;;;0.13;100.00
37132;BME280;23035;50.032;21.978;2023-02-03T06:36:39;65245.47;;;0.75;100.00
37132;BME280;23035;50.032;21.978;2023-02-03T06:41:45;65302.41;;;1.29;100.00
37132;BME280;23035;50.032;21.978;2023-02-03T06:46:49;65265.56;;;0.92;100.00
37132;BME280;23035;50.032;21.978;2023-02-03T06:51:54;65202.38;;;0.34;100.00
37132;BME280;23035;50.032;21.978;2023-02-03T06:57:00;65280.91;;;1.04;100.00
37132;BME280;23035;50.032;21.978;2023-02-03T07:02:06;65266.09;;;0.92;100.00
37132;BME280;23035;50.032;21.978;2023-02-03T07:07:10;65261.75;;;0.85;100.00
37132;BME280;23035;50.032;21.978;2023-02-03T07:12:16;65266.53;;;0.90;100.00
37132;BME280;23035;50.032;21.978;2023-02-03T07:17:21;65246.84;;;0.71;100.00
37132;BME280;23035;50.032;21.978;2023-02-03T07:22:25;65174.63;;;0.05;100.00
37132;BME280;23035;50.032;21.978;2023-02-03T07:27:31;65197.28;;;0.21;100.00
37132;BME280;23035;50.032;21.978;2023-02-03T07:32:36;65226.75;;;0.54;100.00
37132;BME280;23035;50.032;21.978;2023-02-03T07:37:40;65233.66;;;0.61;100.00
37132;BME280;23035;50.032;21.978;2023-02-03T07:42:48;65228.22;;;0.53;100.00
37132;BME280;23035;50.032;21.978;2023-02-03T07:47:53;65207.91;;;0.32;100.00
37132;BME280;23035;50.032;21.978;2023-02-03T07:52:57;65197.59;;;0.29;100.00
37132;BME280;23035;50.032;21.978;2023-02-03T07:58:03;65193.88;;;0.25;100.00
37132;BME280;23035;50.032;21.978;2023-02-03T08:03:08;65260.25;;;0.86;100.00
37132;BME280;23035;50.032;21.978;2023-02-03T08:08:12;65367.75;;;1.89;100.00
37132;BME280;23035;50.032;21.978;2023-02-03T08:13:18;65364.38;;;1.81;100.00
37132;BME280;23035;50.032;21.978;2023-02-03T08:18:23;65389.50;;;2.08;100.00
37132;BME280;23035;50.032;21.978;2023-02-03T08:23:27;65422.72;;;2.44;100.00
37132;BME280;23035;50.032;21.978;2023-02-03T08:28:33;65372.44;;;1.91;100.00
37132;BME280;23035;50.032;21.978;2023-02-03T08:33:38;65284.63;;;1.07;100.00
37132;BME280;23035;50.032;21.978;2023-02-03T08:38:42;65339.00;;;1.62;100.00
37132;BME280;23035;50.032;21.978;2023-02-03T08:43:48;65292.16;;;1.17;100.00
37132;BME280;23035;50.032;21.978;2023-02-03T08:48:53;65342.31;;;1.67;100.00
37132;BME280;23035;50.032;21.978;2023-02-03T08:53:58;65383.72;;;2.05;100.00
37132;BME280;23035;50.032;21.978;2023-02-03T08:59:04;65295.56;;;1.25;100.00
37132;BME280;23035;50.032;21.978;2023-02-03T09:04:09;65288.34;;;1.11;100.00
37132;BME280;23035;50.032;21.978;2023-02-03T09:09:15;65374.25;;;1.98;100.00
37132;BME280;23035;50.032;21.978;2023-02-03T09:14:21;65362.97;;;1.85;100.00
37132;BME280;23035;50.032;21.978;2023-02-03T09:19:27;65365.09;;;1.87;100.00
37132;BME280;23035;50.032;21.978;2023-02-03T09:24:31;65360.31;;;1.82;100.00
37132;BME280;23035;50.032;21.978;2023-02-03T09:29:38;65351.34;;;1.76;100.00
37132;BME280;23035;50.032;21.978;2023-02-03T09:34:43;65288.25;;;1.08;100.00
37132;BME280;23035;50.032;21.978;2023-02-03T09:39:47;65461.41;;;2.76;100.00
37132;BME280;23035;50.032;21.978;2023-02-03T09:45:00;65329.53;;;1.55;100.00
37132;BME280;23035;50.032;21.978;2023-02-03T09:50:12;65358.19;;;1.80;100.00
37132;BME280;23035;50.032;21.978;2023-02-03T09:55:28;65441.91;;;2.63;100.00
37132;BME280;23035;50.032;21.978;2023-02-03T10:00:41;65450.41;;;2.71;100.00
37132;BME280;23035;50.032;21.978;2023-02-03T10:05:55;65459.38;;;2.77;100.00
37132;BME280;23035;50.032;21.978;2023-02-03T10:11:17;65603.44;;;4.17;100.00
37132;BME280;23035;50.032;21.978;2023-02-03T10:16:34;65452.34;;;2.68;100.00
37132;BME280;23035;50.032;21.978;2023-02-03T10:21:48;65380.31;;;1.96;100.00
37132;BME280;23035;50.032;21.978;2023-02-03T10:26:57;65439.03;;;2.55;100.00
37132;BME280;23035;50.032;21.978;2023-02-03T10:32:08;65424.31;;;2.46;100.00
37132;BME280;23035;50.032;21.978;2023-02-03T10:37:20;65434.88;;;2.53;100.00
37132;BME280;23035;50.032;21.978;2023-02-03T10:42:28;65524.31;;;3.36;94.79
37132;BME280;23035;50.032;21.978;2023-02-03T10:47:56;65596.94;;;4.08;87.52
37132;BME280;23035;50.032;21.978;2023-02-03T10:53:19;65597.03;;;4.11;84.30
37132;BME280;23035;50.032;21.978;2023-02-03T10:58:26;65570.91;;;3.86;83.33
37132;BME280;23035;50.032;21.978;2023-02-03T11:03:33;65582.63;;;3.97;83.92
37132;BME280;23035;50.032;21.978;2023-02-03T11:08:39;65515.88;;;3.31;85.61
37132;BME280;23035;50.032;21.978;2023-02-03T11:13:44;65485.50;;;3.02;88.51
37132;BME280;23035;50.032;21.978;2023-02-03T11:18:54;65589.56;;;4.03;83.88
37132;BME280;23035;50.032;21.978;2023-02-03T11:24:03;65612.41;;;4.23;81.83
37132;BME280;23035;50.032;21.978;2023-02-03T11:29:15;65632.25;;;4.44;79.22
37132;BME280;23035;50.032;21.978;2023-02-03T11:34:26;65627.00;;;4.42;79.80
37132;BME280;23035;50.032;21.978;2023-02-03T11:39:31;65681.34;;;4.91;77.94
37132;BME280;23035;50.032;21.978;2023-02-03T11:44:37;65610.72;;;4.19;81.57
37132;BME280;23035;50.032;21.978;2023-02-03T11:50:02;65719.59;;;5.23;76.27
37132;BME280;23035;50.032;21.978;2023-02-03T11:55:19;65638.56;;;4.48;75.28
37132;BME280;23035;50.032;21.978;2023-02-03T12:00:30;65654.84;;;4.71;76.22
37132;BME280;23035;50.032;21.978;2023-02-03T12:06:08;65757.09;;;5.61;73.34
37132;BME280;23035;50.032;21.978;2023-02-03T12:11:18;65746.50;;;5.53;73.80
37132;BME280;23035;50.032;21.978;2023-02-03T12:22:06;65803.50;;;6.02;71.43
37132;BME280;23035;50.032;21.978;2023-02-03T12:27:23;65693.63;;;5.03;74.00
37132;BME280;23035;50.032;21.978;2023-02-03T12:32:35;65764.09;;;5.70;73.16
37132;BME280;23035;50.032;21.978;2023-02-03T12:37:46;65772.13;;;5.78;72.24
37132;BME280;23035;50.032;21.978;2023-02-03T12:42:56;65743.28;;;5.50;74.82
37132;BME280;23035;50.032;21.978;2023-02-03T12:48:05;65742.13;;;5.46;75.12
37132;BME280;23035;50.032;21.978;2023-02-03T12:53:18;65721.91;;;5.30;73.71
37132;BME280;23035;50.032;21.978;2023-02-03T12:58:30;65677.69;;;4.90;73.73
37132;BME280;23035;50.032;21.978;2023-02-03T13:03:41;65622.75;;;4.38;74.34
37132;BME280;23035;50.032;21.978;2023-02-03T13:08:55;65649.22;;;4.58;75.46
37132;BME280;23035;50.032;21.978;2023-02-03T13:14:11;65637.50;;;4.47;76.28
37132;BME280;23035;50.032;21.978;2023-02-03T13:19:21;65723.53;;;5.31;75.60
37132;BME280;23035;50.032;21.978;2023-02-03T13:24:29;65678.16;;;4.88;74.51
37132;BME280;23035;50.032;21.978;2023-02-03T13:29:45;65700.91;;;5.05;74.11
37132;BME280;23035;50.032;21.978;2023-02-03T13:35:14;65684.88;;;4.89;75.96
37132;BME280;23035;50.032;21.978;2023-02-03T13:40:43;65665.44;;;4.78;78.24
37132;BME280;23035;50.032;21.978;2023-02-03T13:45:52;65615.25;;;4.30;77.81
37132;BME280;23035;50.032;21.978;2023-02-03T13:51:03;65606.97;;;4.15;80.64
37132;BME280;23035;50.032;21.978;2023-02-03T13:56:17;65583.06;;;3.95;82.27
37132;BME280;23035;50.032;21.978;2023-02-03T14:01:29;65537.84;;;3.54;81.02
37132;BME280;23035;50.032;21.978;2023-02-03T14:07:00;65523.97;;;3.41;83.85
37132;BME280;23035;50.032;21.978;2023-02-03T14:17:58;65527.16;;;3.44;82.90
37132;BME280;23035;50.032;21.978;2023-02-03T14:23:07;65517.59;;;3.35;83.92
37132;BME280;23035;50.032;21.978;2023-02-03T14:28:15;65512.88;;;3.33;86.27
37132;BME280;23035;50.032;21.978;2023-02-03T14:33:49;65523.97;;;3.41;88.74
37132;BME280;23035;50.032;21.978;2023-02-03T14:38:55;65494.03;;;3.10;97.11
37132;BME280;23035;50.032;21.978;2023-02-03T14:44:09;65504.78;;;3.23;100.00
37132;BME280;23035;50.032;21.978;2023-02-03T14:55:10;65435.41;;;2.54;100.00
37132;BME280;23035;50.032;21.978;2023-02-03T15:00:29;65464.59;;;2.79;100.00
37132;BME280;23035;50.032;21.978;2023-02-03T15:05:39;65408.13;;;2.25;100.00
37132;BME280;23035;50.032;21.978;2023-02-03T15:10:44;65385.97;;;2.09;100.00
37132;BME280;23035;50.032;21.978;2023-02-03T15:15:49;65363.72;;;1.90;100.00
37132;BME280;23035;50.032;21.978;2023-02-03T15:20:57;65365.75;;;1.90;100.00
37132;BME280;23035;50.032;21.978;2023-02-03T15:26:10;65333.78;;;1.59;100.00
37132;BME280;23035;50.032;21.978;2023-02-03T15:31:18;65309.72;;;1.34;100.00
37132;BME280;23035;50.032;21.978;2023-02-03T15:36:33;65318.34;;;1.44;100.00
37132;BME280;23035;50.032;21.978;2023-02-03T15:41:41;65343.78;;;1.66;100.00
37132;BME280;23035;50.032;21.978;2023-02-03T15:46:49;65284.72;;;1.10;100.00
37132;BME280;23035;50.032;21.978;2023-02-03T15:51:57;65362.00;;;1.86;100.00
37132;BME280;23035;50.032;21.978;2023-02-03T15:57:06;65329.53;;;1.55;100.00
37132;BME280;23035;50.032;21.978;2023-02-03T16:02:16;65304.94;;;1.29;100.00
37132;BME280;23035;50.032;21.978;2023-02-03T16:07:26;65369.91;;;1.91;100.00
37132;BME280;23035;50.032;21.978;2023-02-03T16:12:32;65362.97;;;1.85;100.00
37132;BME280;23035;50.032;21.978;2023-02-03T16:17:37;65347.97;;;1.68;100.00
37132;BME280;23035;50.032;21.978;2023-02-03T16:22:45;65336.03;;;1.64;100.00
37132;BME280;23035;50.032;21.978;2023-02-03T16:27:55;65289.94;;;1.12;100.00
37132;BME280;23035;50.032;21.978;2023-02-03T16:33:17;65279.31;;;1.02;100.00
37132;BME280;23035;50.032;21.978;2023-02-03T16:38:45;65325.59;;;1.47;100.00
37132;BME280;23035;50.032;21.978;2023-02-03T16:44:10;65292.28;;;1.20;100.00
37132;BME280;23035;50.032;21.978;2023-02-03T16:49:32;65239.63;;;0.69;100.00
37132;BME280;23035;50.032;21.978;2023-02-03T16:54:55;65216.00;;;0.42;100.00
37132;BME280;23035;50.032;21.978;2023-02-03T17:00:00;65203.88;;;0.33;100.00
37132;BME280;23035;50.032;21.978;2023-02-03T17:05:05;65171.03;;;0.04;100.00
37132;BME280;23035;50.032;21.978;2023-02-03T17:10:11;65206.63;;;0.38;100.00
37132;BME280;23035;50.032;21.978;2023-02-03T17:15:16;65189.09;;;0.21;100.00
37132;BME280;23035;50.032;21.978;2023-02-03T17:20:21;65245.47;;;0.75;100.00
37132;BME280;23035;50.032;21.978;2023-02-03T17:25:27;65194.72;;;0.21;100.00
37132;BME280;23035;50.032;21.978;2023-02-03T17:30:31;65220.78;;;0.46;100.00
37132;BME280;23035;50.032;21.978;2023-02-03T17:35:38;65243.66;;;0.68;100.00
37132;BME280;23035;50.032;21.978;2023-02-03T17:40:45;65230.03;;;0.60;100.00
37132;BME280;23035;50.032;21.978;2023-02-03T17:46:07;65207.50;;;0.34;100.00
37132;BME280;23035;50.032;21.978;2023-02-03T17:51:29;65238.44;;;0.66;100.00
37132;BME280;23035;50.032;21.978;2023-02-03T17:56:55;65239.63;;;0.69;100.00
37132;BME280;23035;50.032;21.978;2023-02-03T18:02:00;65212.16;;;0.36;100.00
37132;BME280;23035;50.032;21.978;2023-02-03T18:07:05;65194.72;;;0.21;100.00
37132;BME280;23035;50.032;21.978;2023-02-03T18:12:11;65142.22;;;-0.26;100.00
37132;BME280;23035;50.032;21.978;2023-02-03T18:17:16;65175.25;;;0.08;100.00
37132;BME280;23035;50.032;21.978;2023-02-03T18:22:21;65124.66;;;-0.43;100.00
37132;BME280;23035;50.032;21.978;2023-02-03T18:27:27;65152.31;;;-0.17;100.00
37132;BME280;23035;50.032;21.978;2023-02-03T18:32:31;65111.91;;;-0.55;100.00
37132;BME280;23035;50.032;21.978;2023-02-03T18:37:36;65097.47;;;-0.72;100.00
37132;BME280;23035;50.032;21.978;2023-02-03T18:42:42;65098.00;;;-0.71;100.00
37132;BME280;23035;50.032;21.978;2023-02-03T18:47:47;65161.34;;;-0.08;100.00
37132;BME280;23035;50.032;21.978;2023-02-03T18:52:52;65153.47;;;-0.13;100.00
37132;BME280;23035;50.032;21.978;2023-02-03T18:57:58;65123.06;;;-0.45;100.00
37132;BME280;23035;50.032;21.978;2023-02-03T19:03:03;65104.38;;;-0.65;100.00
37132;BME280;23035;50.032;21.978;2023-02-03T19:08:08;65092.91;;;-0.71;100.00
37132;BME280;23035;50.032;21.978;2023-02-03T19:13:13;65117.13;;;-0.53;100.00
37132;BME280;23035;50.032;21.978;2023-02-03T19:18:18;65097.03;;;-0.70;100.00
37132;BME280;23035;50.032;21.978;2023-02-03T19:23:23;65123.06;;;-0.45;100.00
37132;BME280;23035;50.032;21.978;2023-02-03T19:28:29;65110.53;;;-0.52;100.00
37132;BME280;23035;50.032;21.978;2023-02-03T19:33:36;65088.03;;;-0.78;100.00
37132;BME280;23035;50.032;21.978;2023-02-03T19:38:40;65127.84;;;-0.40;100.00
37132;BME280;23035;50.032;21.978;2023-02-03T19:43:47;65154.00;;;-0.13;100.00
37132;BME280;23035;50.032;21.978;2023-02-03T19:48:54;65171.44;;;0.02;100.00
37132;BME280;23035;50.032;21.978;2023-02-03T19:53:59;65158.03;;;-0.14;100.00
37132;BME280;23035;50.032;21.978;2023-02-03T19:59:06;65148.56;;;-0.20;100.00
37132;BME280;23035;50.032;21.978;2023-02-03T20:04:10;65156.44;;;-0.15;100.00
37132;BME280;23035;50.032;21.978;2023-02-03T20:09:15;65192.19;;;0.21;100.00
37132;BME280;23035;50.032;21.978;2023-02-03T20:14:21;65231.94;;;0.57;100.00
37132;BME280;23035;50.032;21.978;2023-02-03T20:19:25;65253.00;;;0.84;100.00
37132;BME280;23035;50.032;21.978;2023-02-03T20:24:30;65292.59;;;1.15;100.00
37132;BME280;23035;50.032;21.978;2023-02-03T20:29:36;65293.34;;;1.21;100.00
37132;BME280;23035;50.032;21.978;2023-02-03T20:34:40;65304.53;;;1.31;100.00
37132;BME280;23035;50.032;21.978;2023-02-03T20:39:45;65312.38;;;1.36;100.00
37132;BME280;23035;50.032;21.978;2023-02-03T20:44:51;65288.34;;;1.11;100.00
37132;BME280;23035;50.032;21.978;2023-02-03T20:49:57;65326.69;;;1.48;100.00
37132;BME280;23035;50.032;21.978;2023-02-03T20:55:08;65319.84;;;1.43;100.00
37132;BME280;23035;50.032;21.978;2023-02-03T21:00:17;65287.47;;;1.15;100.00
37132;BME280;23035;50.032;21.978;2023-02-03T21:05:24;65309.72;;;1.34;100.00
37132;BME280;23035;50.032;21.978;2023-02-03T21:10:29;65313.03;;;1.39;100.00
37132;BME280;23035;50.032;21.978;2023-02-03T21:15:35;65301.13;;;1.23;100.00
37132;BME280;23035;50.032;21.978;2023-02-03T21:20:40;65290.13;;;1.18;100.00
37132;BME280;23035;50.032;21.978;2023-02-03T21:25:44;65296.00;;;1.23;100.00
37132;BME280;23035;50.032;21.978;2023-02-03T21:30:57;65288.53;;;1.16;100.00
37132;BME280;23035;50.032;21.978;2023-02-03T21:36:02;65338.16;;;1.54;100.00
37132;BME280;23035;50.032;21.978;2023-02-03T21:41:13;65319.22;;;1.40;100.00
37132;BME280;23035;50.032;21.978;2023-02-03T21:46:23;65292.91;;;1.23;100.00
37132;BME280;23035;50.032;21.978;2023-02-03T21:51:32;65278.44;;;1.06;100.00
37132;BME280;23035;50.032;21.978;2023-02-03T21:56:39;65297.50;;;1.22;100.00
37132;BME280;23035;50.032;21.978;2023-02-03T22:01:46;65273.03;;;0.99;100.00
37132;BME280;23035;50.032;21.978;2023-02-03T22:06:50;65303.03;;;1.32;100.00
37132;BME280;23035;50.032;21.978;2023-02-03T22:11:55;65304.00;;;1.31;100.00
37132;BME280;23035;50.032;21.978;2023-02-03T22:17:04;65333.59;;;1.54;100.00
37132;BME280;23035;50.032;21.978;2023-02-03T22:22:09;65334.53;;;1.53;100.00
37132;BME280;23035;50.032;21.978;2023-02-03T22:27:13;65332.00;;;1.53;100.00
37132;BME280;23035;50.032;21.978;2023-02-03T22:32:19;65341.13;;;1.64;100.00
37132;BME280;23035;50.032;21.978;2023-02-03T22:37:23;65324.13;;;1.48;100.00
37132;BME280;23035;50.032;21.978;2023-02-03T22:42:27;65326.78;;;1.50;100.00
37132;BME280;23035;50.032;21.978;2023-02-03T22:47:33;65328.91;;;1.52;100.00
37132;BME280;23035;50.032;21.978;2023-02-03T22:52:38;65345.28;;;1.65;100.00
37132;BME280;23035;50.032;21.978;2023-02-03T22:57:42;65344.44;;;1.69;100.00
37132;BME280;23035;50.032;21.978;2023-02-03T23:02:49;65324.84;;;1.53;100.00
37132;BME280;23035;50.032;21.978;2023-02-03T23:07:53;65371.38;;;1.90;100.00
37132;BME280;23035;50.032;21.978;2023-02-03T23:12:58;65331.66;;;1.57;100.00
37132;BME280;23035;50.032;21.978;2023-02-03T23:18:05;65355.00;;;1.77;100.00
37132;BME280;23035;50.032;21.978;2023-02-03T23:23:09;65377.44;;;2.01;100.00
37132;BME280;23035;50.032;21.978;2023-02-03T23:28:16;65335.38;;;1.61;100.00
37132;BME280;23035;50.032;21.978;2023-02-03T23:33:22;65334.31;;;1.60;100.00
37132;BME280;23035;50.032;21.978;2023-02-03T23:38:26;65333.69;;;1.57;100.00
37132;BME280;23035;50.032;21.978;2023-02-03T23:43:31;65362.44;;;1.84;100.00
37132;BME280;23035;50.032;21.978;2023-02-03T23:48:37;65362.88;;;1.82;100.00
37132;BME280;23035;50.032;21.978;2023-02-03T23:53:42;65378.41;;;1.99;100.00
37132;BME280;23035;50.032;21.978;2023-02-03T23:58:46;65363.41;;;1.83;100.00
